Meeteetse, Wyoming
Current Conditions -  °F | °C
As of 3:35 PM on Wednesday 22 Oct 2014 (Local Time) from KDUB Reporting Station
Clear Clear  
Wind Chill: 52°   Ceiling: Unl
Heat Index: 52°   Visibility: 10mi
Dew Point: 10°   Wind: 22mph
Humidity: 19%   Direction: 320°NW
Pressure: 30.12"   Gusts: NA
Location:  44.16°N, 108.87°W
Report Text: KDUB 222135Z AUTO 32019KT 10SM CLR 11/M12 A3012 RMK AO2
Loading
Personal Weather Stations






























Interactive Weather Map
Tropical Storm Tracking
New forecast layout! Learn more

10-Day Weather Forecast

Advertisements
Track Severe Weather on mobile